KBEC/BEC METAR and TAF weather

Enter ICAO airport designator
Station Type Date Time Source
KBEC METAR 2021/08/05 04:55 UTC NOAA

KBEC 050455Z AUTO 15008KT 10SM CLR 22/17 A3008 RMK AO2 T02220167


Station Type Date Time Source
KBEC Decoded METAR 2021/08/05 04:55 UTC NOAA

Station name not available
Aug 05, 2021 - 12:55 AM EDT / 2021.08.05 0455 UTC
Wind: from the SSE (150 degrees) at 9 MPH (8 KT):0
Visibility: 10 mile(s):0
Sky conditions: clear
Temperature: 72.0 F (22.2 C)
Dew Point: 62.1 F (16.7 C)
Relative Humidity: 71%
Pressure (altimeter): 30.08 in. Hg (1018 hPa)
ob: KBEC 050455Z AUTO 15008KT 10SM CLR 22/17 A3008 RMK AO2 T02220167
cycle: 5

Station Type Date Time Source
KBEC TAF UTC NOAA

Error!

Example: see airport list